createdAt,value
2018-06-08T00:01:38.686Z,80.90
2018-06-08T00:04:07.538Z,81.70
2018-06-08T00:09:11.540Z,82.20
2018-06-08T00:11:40.374Z,82.80
2018-06-08T00:14:09.323Z,83.80
2018-06-08T00:16:38.182Z,83.80
2018-06-08T00:19:06.993Z,84.00
2018-06-08T00:21:35.811Z,84.40
2018-06-08T00:24:04.643Z,84.60
2018-06-08T00:26:33.457Z,85.50
2018-06-08T00:29:02.274Z,85.00
2018-06-08T00:31:31.083Z,83.60
2018-06-08T00:33:59.899Z,84.00
2018-06-08T00:36:28.707Z,83.10
2018-06-08T00:38:57.524Z,82.60
2018-06-08T00:41:26.335Z,84.00
2018-06-08T00:43:55.172Z,84.40
2018-06-08T00:46:24.000Z,84.40
2018-06-08T00:48:53.226Z,84.20
2018-06-08T00:51:22.050Z,84.20
2018-06-08T00:53:50.877Z,84.40
2018-06-08T00:56:31.148Z,84.30
2018-06-08T00:58:59.982Z,84.60
2018-06-08T01:01:28.868Z,84.70
2018-06-08T01:03:57.699Z,85.40
2018-06-08T01:06:26.524Z,85.50
2018-06-08T01:08:55.367Z,85.70
2018-06-08T01:11:24.187Z,85.70
2018-06-08T01:13:53.015Z,85.60
2018-06-08T01:16:21.839Z,86.00
2018-06-08T01:18:50.663Z,86.40
2018-06-08T01:21:19.471Z,86.20
2018-06-08T01:23:48.293Z,86.30
2018-06-08T01:26:17.111Z,86.60
2018-06-08T01:28:45.955Z,86.30
2018-06-08T01:31:14.805Z,86.40
2018-06-08T01:33:43.628Z,86.50
2018-06-08T01:36:12.455Z,86.70
2018-06-08T01:38:41.288Z,87.00
2018-06-08T01:41:10.100Z,87.10
2018-06-08T01:43:38.915Z,87.10
2018-06-08T01:46:07.747Z,87.30
2018-06-08T01:48:36.571Z,87.80
2018-06-08T01:51:05.411Z,88.10
2018-06-08T01:53:34.239Z,88.60
2018-06-08T01:56:03.102Z,88.80
2018-06-08T01:58:31.907Z,88.80
2018-06-08T02:01:00.825Z,89.00
2018-06-08T02:03:29.535Z,89.10
2018-06-08T02:05:58.346Z,89.40
2018-06-08T02:08:27.159Z,89.60
2018-06-08T02:10:56.273Z,89.80
2018-06-08T02:15:53.591Z,90.20
2018-06-08T02:18:22.391Z,90.20
2018-06-08T02:20:51.206Z,90.40
2018-06-08T02:23:20.018Z,90.30
2018-06-08T02:25:48.826Z,90.50
2018-06-08T02:28:17.626Z,90.80
2018-06-08T02:30:46.449Z,91.10
2018-06-08T02:33:15.280Z,90.90
2018-06-08T02:35:44.082Z,90.90
2018-06-08T02:38:12.886Z,90.80
2018-06-08T02:40:41.707Z,90.90
2018-06-08T02:43:10.518Z,90.90
2018-06-08T02:45:39.346Z,90.80
2018-06-08T02:48:08.151Z,90.90
2018-06-08T02:50:36.962Z,91.00
2018-06-08T02:53:05.766Z,91.00
2018-06-08T02:55:34.575Z,90.90
2018-06-08T02:58:03.379Z,90.50
2018-06-08T03:00:32.199Z,90.70
2018-06-08T03:03:01.007Z,90.70
2018-06-08T03:05:30.270Z,90.70
2018-06-08T03:07:59.074Z,90.70
2018-06-08T03:10:27.949Z,90.60
2018-06-08T03:12:56.750Z,90.50
2018-06-08T03:15:25.575Z,90.40
2018-06-08T03:17:54.382Z,90.80
2018-06-08T03:20:23.609Z,90.30
2018-06-08T03:22:52.560Z,90.10
2018-06-08T03:25:21.395Z,89.80
2018-06-08T03:27:50.202Z,89.50
2018-06-08T03:30:19.045Z,89.50
2018-06-08T03:32:48.177Z,88.40
2018-06-08T03:35:16.987Z,88.00
2018-06-08T03:37:45.806Z,87.60
2018-06-08T03:42:43.210Z,86.90
2018-06-08T03:45:12.018Z,85.90
2018-06-08T03:47:40.846Z,85.40
2018-06-08T03:50:09.707Z,84.70
2018-06-08T03:52:38.510Z,84.10
2018-06-08T03:55:07.311Z,83.40
2018-06-08T03:57:36.331Z,83.90
2018-06-08T04:00:05.682Z,82.40
2018-06-08T04:02:34.499Z,81.60
2018-06-08T04:05:03.348Z,81.90
2018-06-08T04:07:32.144Z,81.70
2018-06-08T04:10:00.962Z,81.40
2018-06-08T04:12:29.775Z,81.10
2018-06-08T04:14:58.662Z,81.30
2018-06-08T04:17:27.485Z,80.40
2018-06-08T04:19:56.710Z,80.00
2018-06-08T04:22:25.498Z,79.40
2018-06-08T04:24:54.516Z,79.10
2018-06-08T04:27:23.340Z,78.60
2018-06-08T04:29:52.150Z,77.50
2018-06-08T04:32:20.962Z,76.60
2018-06-08T04:34:49.764Z,75.50
2018-06-08T04:37:18.578Z,75.90
2018-06-08T04:39:47.386Z,73.90
2018-06-08T04:42:16.192Z,73.30
2018-06-08T04:44:44.994Z,72.10
2018-06-08T04:47:13.795Z,70.20
2018-06-08T04:49:42.618Z,68.30
2018-06-08T04:52:11.418Z,66.50
2018-06-08T04:54:40.232Z,64.60
2018-06-08T04:57:09.074Z,64.40
2018-06-08T04:59:37.922Z,64.70
2018-06-08T05:02:06.719Z,63.70
2018-06-08T05:04:35.524Z,63.20
2018-06-08T05:07:04.623Z,64.90
2018-06-08T05:09:33.434Z,64.20
2018-06-08T05:12:02.261Z,64.30
2018-06-08T05:14:31.062Z,63.80
2018-06-08T05:16:59.858Z,61.80
2018-06-08T05:19:28.666Z,58.50
2018-06-08T05:21:57.463Z,57.80
2018-06-08T05:24:26.299Z,57.10
2018-06-08T05:26:55.196Z,55.10
2018-06-08T05:29:23.979Z,53.50
2018-06-08T05:31:52.779Z,52.40
2018-06-08T05:34:21.587Z,50.10
2018-06-08T05:36:51.075Z,49.90
2018-06-08T05:39:19.886Z,47.90
2018-06-08T05:41:48.719Z,46.10
2018-06-08T05:44:17.598Z,43.60
2018-06-08T05:46:46.398Z,43.10
2018-06-08T05:49:15.214Z,41.10
2018-06-08T05:51:44.018Z,40.00
2018-06-08T05:54:12.850Z,39.00
2018-06-08T05:56:41.642Z,38.10
2018-06-08T05:59:10.463Z,37.10
2018-06-08T06:01:39.273Z,36.20
2018-06-08T06:04:08.069Z,36.00
2018-06-08T06:06:36.875Z,35.10
2018-06-08T06:09:07.950Z,33.30
2018-06-08T06:11:37.458Z,33.30
2018-06-08T06:14:06.270Z,34.00
2018-06-08T06:16:35.070Z,33.90
2018-06-08T06:21:32.467Z,32.00
2018-06-08T06:24:01.291Z,31.70
2018-06-08T06:26:30.103Z,31.60
2018-06-08T06:28:58.918Z,32.50
2018-06-08T06:31:27.741Z,33.00
2018-06-08T06:33:56.547Z,33.10
2018-06-08T06:36:25.358Z,32.00
2018-06-08T06:38:54.158Z,30.70
2018-06-08T06:41:22.974Z,30.20
2018-06-08T06:43:51.774Z,30.10
2018-06-08T06:46:20.619Z,30.00
2018-06-08T06:48:49.418Z,28.40
2018-06-08T06:51:18.236Z,28.50
2018-06-08T06:53:47.043Z,29.00
2018-06-08T06:56:15.851Z,29.60
2018-06-08T06:58:44.648Z,29.80
2018-06-08T07:01:13.508Z,29.50
2018-06-08T07:03:42.307Z,29.30
2018-06-08T07:06:11.168Z,30.00
2018-06-08T07:08:40.618Z,29.60
2018-06-08T07:11:09.422Z,30.80
2018-06-08T07:16:07.143Z,32.50
2018-06-08T07:18:35.938Z,33.30
2018-06-08T07:21:04.818Z,35.10
2018-06-08T07:23:33.614Z,35.60
2018-06-08T07:26:02.434Z,37.00
2018-06-08T07:28:31.238Z,37.00
2018-06-08T07:31:00.047Z,36.00
2018-06-08T07:33:28.848Z,35.40
2018-06-08T07:35:57.738Z,36.30
2018-06-08T07:38:26.546Z,37.50
2018-06-08T07:40:55.374Z,38.40
2018-06-08T07:43:24.189Z,39.30
2018-06-08T07:45:53.008Z,38.90
2018-06-08T07:48:21.812Z,39.60
2018-06-08T07:50:51.673Z,42.20
2018-06-08T07:53:20.470Z,42.90
2018-06-08T07:55:49.301Z,42.00
2018-06-08T07:58:18.099Z,42.00
2018-06-08T08:00:46.935Z,42.20
2018-06-08T08:03:15.738Z,41.40
2018-06-08T08:05:44.538Z,40.40
2018-06-08T08:08:13.355Z,40.80
2018-06-08T08:10:42.156Z,42.70
2018-06-08T08:13:10.970Z,41.70
2018-06-08T08:15:39.775Z,38.20
2018-06-08T08:18:08.583Z,39.70
2018-06-08T08:20:37.379Z,36.20
2018-06-08T08:23:06.182Z,37.50
2018-06-08T08:25:35.073Z,38.00
2018-06-08T08:28:03.946Z,36.30
2018-06-08T08:30:32.739Z,37.50
2018-06-08T08:33:01.547Z,38.00
2018-06-08T08:35:30.329Z,36.50
2018-06-08T08:37:59.134Z,36.00
2018-06-08T08:42:56.523Z,35.50
2018-06-08T08:45:25.314Z,36.20
2018-06-08T08:47:54.125Z,35.70
2018-06-08T08:50:22.914Z,35.50
2018-06-08T08:52:51.734Z,36.70
2018-06-08T08:55:20.531Z,35.30
2018-06-08T08:57:49.349Z,35.60
2018-06-08T09:00:18.220Z,36.10
2018-06-08T09:02:47.019Z,34.90
2018-06-08T09:05:15.840Z,35.60
2018-06-08T09:07:44.664Z,35.60
2018-06-08T09:10:13.462Z,35.90
2018-06-08T09:15:10.871Z,37.20
2018-06-08T09:17:39.678Z,36.30
2018-06-08T09:20:08.550Z,36.20
2018-06-08T09:22:37.298Z,35.20
2018-06-08T09:25:06.098Z,35.80
2018-06-08T09:27:34.986Z,35.80
2018-06-08T09:30:03.795Z,37.90
2018-06-08T09:32:32.743Z,36.80
2018-06-08T09:35:01.536Z,36.20
2018-06-08T09:37:30.327Z,36.40
2018-06-08T09:39:59.190Z,36.50
2018-06-08T09:42:27.923Z,36.70
2018-06-08T09:44:56.738Z,35.30
2018-06-08T09:47:25.535Z,34.00
2018-06-08T09:49:54.363Z,35.30
2018-06-08T09:52:23.171Z,35.50
2018-06-08T09:54:52.062Z,36.60
2018-06-08T09:57:20.806Z,36.20
2018-06-08T09:59:49.614Z,36.60
2018-06-08T10:02:18.411Z,36.10
2018-06-08T10:04:47.218Z,35.10
2018-06-08T10:07:16.035Z,35.10
2018-06-08T10:09:44.939Z,34.60
2018-06-08T10:12:13.746Z,35.10
2018-06-08T10:14:42.553Z,35.70
2018-06-08T10:17:11.351Z,35.70
2018-06-08T10:19:40.160Z,35.70
2018-06-08T10:22:08.963Z,35.80
2018-06-08T10:24:37.781Z,37.20
2018-06-08T10:27:06.579Z,35.50
2018-06-08T10:29:35.418Z,36.60
2018-06-08T10:32:04.233Z,36.70
2018-06-08T10:34:33.043Z,36.10
2018-06-08T10:37:01.862Z,36.20
2018-06-08T10:39:30.675Z,37.10
2018-06-08T10:41:59.479Z,36.80
2018-06-08T10:44:28.299Z,36.20
2018-06-08T10:46:57.103Z,36.40
2018-06-08T10:49:25.902Z,34.80
2018-06-08T10:51:54.702Z,35.90
2018-06-08T10:54:23.541Z,36.80
2018-06-08T10:56:52.344Z,35.60
2018-06-08T10:59:21.142Z,36.80
2018-06-08T11:01:49.942Z,35.60
2018-06-08T11:04:18.762Z,35.40
2018-06-08T11:06:47.571Z,35.30
2018-06-08T11:09:16.386Z,36.10
2018-06-08T11:11:45.226Z,36.30
2018-06-08T11:14:14.028Z,36.00
2018-06-08T11:16:42.826Z,36.00
2018-06-08T11:19:11.704Z,36.40
2018-06-08T11:21:40.546Z,34.80
2018-06-08T11:24:09.379Z,34.40
2018-06-08T11:26:38.183Z,35.80
2018-06-08T11:29:06.979Z,34.80
2018-06-08T11:31:35.882Z,34.20
2018-06-08T11:34:04.646Z,35.30
2018-06-08T11:36:33.479Z,35.60
2018-06-08T11:39:02.287Z,34.80
2018-06-08T11:41:31.098Z,35.90
2018-06-08T11:43:59.894Z,35.00
2018-06-08T11:46:28.787Z,34.80
2018-06-08T11:48:57.661Z,34.70
2018-06-08T11:51:26.483Z,34.40
2018-06-08T11:53:55.342Z,35.00
2018-06-08T11:56:24.138Z,34.40
2018-06-08T11:58:52.939Z,34.30
2018-06-08T12:01:21.750Z,35.90
2018-06-08T12:03:50.542Z,36.40
2018-06-08T12:06:19.362Z,36.90
2018-06-08T12:08:48.173Z,35.00
2018-06-08T12:11:16.987Z,37.10
2018-06-08T12:13:45.834Z,36.60
2018-06-08T12:16:14.638Z,35.80
2018-06-08T12:18:43.458Z,35.80
2018-06-08T12:21:12.343Z,36.70
2018-06-08T12:23:41.138Z,37.30
2018-06-08T12:26:09.934Z,35.30
2018-06-08T12:28:38.747Z,35.90
2018-06-08T12:31:07.559Z,35.90
2018-06-08T12:33:36.362Z,36.40
2018-06-08T12:36:05.809Z,37.10
2018-06-08T12:38:34.591Z,36.40
2018-06-08T12:41:03.399Z,36.10
2018-06-08T12:43:32.275Z,35.50
2018-06-08T12:46:01.114Z,35.50
2018-06-08T12:48:29.931Z,35.20
2018-06-08T12:50:58.827Z,33.90
2018-06-08T12:53:27.678Z,32.40
2018-06-08T12:55:56.466Z,33.20
2018-06-08T12:58:25.287Z,33.20
2018-06-08T13:00:54.090Z,33.30
2018-06-08T13:03:22.910Z,33.80
2018-06-08T13:05:51.735Z,33.10
2018-06-08T13:08:20.544Z,34.10
2018-06-08T13:10:49.403Z,33.70
2018-06-08T13:13:18.321Z,35.20
2018-06-08T13:15:47.197Z,34.50
2018-06-08T13:18:15.950Z,33.80
2018-06-08T13:20:44.746Z,34.40
2018-06-08T13:23:13.559Z,35.60
2018-06-08T13:25:42.346Z,35.60
2018-06-08T13:28:11.146Z,36.20
2018-06-08T13:30:39.943Z,36.70
2018-06-08T13:33:09.234Z,35.60
2018-06-08T13:35:38.021Z,36.10
2018-06-08T13:38:06.886Z,35.90
2018-06-08T13:40:35.759Z,36.50
2018-06-08T13:43:04.706Z,37.00
2018-06-08T13:45:33.494Z,36.50
2018-06-08T13:50:30.794Z,36.70
2018-06-08T13:52:59.635Z,36.60
2018-06-08T13:55:28.450Z,36.90
2018-06-08T13:57:57.266Z,36.60
2018-06-08T14:00:26.073Z,37.40
2018-06-08T14:02:54.879Z,36.60
2018-06-08T14:05:23.674Z,36.50
2018-06-08T14:07:52.476Z,38.60
2018-06-08T14:10:21.319Z,37.30
2018-06-08T14:12:50.122Z,37.80
2018-06-08T14:15:18.938Z,36.20
2018-06-08T14:17:47.778Z,36.60
2018-06-08T14:20:16.676Z,36.60
2018-06-08T14:22:45.516Z,36.70
2018-06-08T14:25:14.332Z,37.00
2018-06-08T14:27:43.127Z,37.90
2018-06-08T14:30:11.943Z,36.90
2018-06-08T14:32:40.733Z,36.40
2018-06-08T14:35:09.605Z,37.20
2018-06-08T14:37:38.424Z,35.90
2018-06-08T14:40:07.531Z,35.60
2018-06-08T14:45:04.834Z,37.00
2018-06-08T14:47:33.681Z,38.20
2018-06-08T14:50:02.876Z,37.40
2018-06-08T14:52:31.646Z,37.40
2018-06-08T14:55:00.450Z,37.00
2018-06-08T14:57:29.307Z,37.80
2018-06-08T14:59:58.122Z,37.30
2018-06-08T15:02:26.923Z,36.70
2018-06-08T15:04:55.718Z,37.00
2018-06-08T15:07:24.510Z,36.70
2018-06-08T15:09:53.343Z,37.30
2018-06-08T15:12:22.138Z,36.60
2018-06-08T15:14:50.942Z,37.60
2018-06-08T15:17:19.744Z,37.10
2018-06-08T15:19:48.546Z,36.70
2018-06-08T15:22:17.342Z,38.20
2018-06-08T15:24:46.151Z,38.40
2018-06-08T15:27:14.950Z,38.30
2018-06-08T15:29:43.758Z,38.40
2018-06-08T15:32:12.565Z,38.90
2018-06-08T15:34:41.410Z,38.40
2018-06-08T15:37:10.171Z,38.90
2018-06-08T15:39:38.967Z,38.40
2018-06-08T15:42:07.781Z,38.20
2018-06-08T15:44:37.446Z,37.80
2018-06-08T15:49:34.850Z,36.80
2018-06-08T15:52:03.658Z,36.70
2018-06-08T15:54:32.583Z,36.50
2018-06-08T15:57:01.399Z,35.90
2018-06-08T15:59:30.190Z,36.10
2018-06-08T16:01:58.995Z,37.00
2018-06-08T16:04:27.794Z,36.70
2018-06-08T16:06:56.602Z,36.90
2018-06-08T16:09:25.726Z,36.90
2018-06-08T16:11:54.531Z,36.60
2018-06-08T16:14:23.350Z,36.60
2018-06-08T16:16:52.150Z,36.70
2018-06-08T16:19:20.991Z,36.60
2018-06-08T16:21:49.783Z,37.00
2018-06-08T16:24:18.574Z,36.70
2018-06-08T16:26:47.431Z,36.70
2018-06-08T16:29:16.282Z,36.50
2018-06-08T16:31:45.124Z,35.70
2018-06-08T16:34:13.961Z,34.00
2018-06-08T16:36:42.855Z,34.10
2018-06-08T16:39:11.734Z,34.40
2018-06-08T16:41:40.550Z,33.80
2018-06-08T16:44:09.414Z,34.40
2018-06-08T16:46:38.447Z,34.30
2018-06-08T16:49:07.295Z,34.00
2018-06-08T16:51:36.119Z,34.10
2018-06-08T16:54:05.211Z,34.60
2018-06-08T16:56:34.346Z,34.60
2018-06-08T16:59:03.214Z,33.60
2018-06-08T17:01:32.067Z,34.20
2018-06-08T17:04:00.994Z,34.30
2018-06-08T17:06:30.028Z,34.40
2018-06-08T17:08:58.950Z,34.00
2018-06-08T17:11:27.767Z,34.00
2018-06-08T17:13:56.614Z,35.40
2018-06-08T17:16:25.427Z,35.60
2018-06-08T17:18:54.295Z,36.10
2018-06-08T17:21:23.176Z,36.80
2018-06-08T17:23:52.248Z,35.60
2018-06-08T17:26:21.073Z,37.20
2018-06-08T17:28:49.886Z,36.80
2018-06-08T17:31:18.789Z,36.50
2018-06-08T17:33:47.566Z,37.30
2018-06-08T17:36:16.386Z,37.10
2018-06-08T17:38:45.199Z,37.20
2018-06-08T17:41:14.002Z,36.70
2018-06-08T17:43:42.826Z,37.10
2018-06-08T17:46:11.642Z,37.70
2018-06-08T17:48:40.446Z,38.10
2018-06-08T17:51:09.274Z,37.00
2018-06-08T17:53:38.050Z,37.60
2018-06-08T17:56:06.887Z,37.50
2018-06-08T17:58:35.696Z,36.70
2018-06-08T18:01:04.487Z,37.60
2018-06-08T18:03:33.322Z,37.40
2018-06-08T18:06:02.185Z,37.60
2018-06-08T18:08:30.942Z,37.70
2018-06-08T18:10:59.742Z,38.00
2018-06-08T18:13:28.918Z,38.00
2018-06-08T18:15:57.738Z,38.50
2018-06-08T18:18:26.547Z,38.40
2018-06-08T18:20:55.339Z,38.20
2018-06-08T18:23:24.196Z,38.20
2018-06-08T18:25:52.968Z,38.90
2018-06-08T18:28:22.265Z,38.80
2018-06-08T18:30:51.063Z,39.10
2018-06-08T18:33:19.929Z,39.40
2018-06-08T18:35:48.677Z,39.40
2018-06-08T18:38:17.481Z,39.70
2018-06-08T18:40:46.278Z,39.50
2018-06-08T18:43:15.073Z,39.90
2018-06-08T18:48:12.467Z,41.10
2018-06-08T18:50:41.270Z,40.70
2018-06-08T18:53:10.063Z,40.90
2018-06-08T18:55:38.956Z,41.30
2018-06-08T18:58:08.353Z,42.00
2018-06-08T19:00:37.250Z,41.80
2018-06-08T19:03:06.127Z,43.10
2018-06-08T19:05:35.193Z,44.60
2018-06-08T19:08:04.107Z,45.70
2018-06-08T19:10:32.906Z,46.50
2018-06-08T19:13:01.791Z,47.30
2018-06-08T19:15:30.682Z,47.60
2018-06-08T19:17:59.618Z,48.30
2018-06-08T19:20:28.461Z,48.50
2018-06-08T19:22:57.338Z,48.90
2018-06-08T19:25:26.242Z,49.10
2018-06-08T19:27:55.121Z,49.30
2018-06-08T19:30:23.944Z,49.40
2018-06-08T19:32:52.742Z,49.60
2018-06-08T19:35:21.594Z,49.80
2018-06-08T19:37:50.386Z,49.90
2018-06-08T19:40:19.190Z,50.10
2018-06-08T19:42:48.003Z,50.60
2018-06-08T19:45:16.827Z,50.70
2018-06-08T19:47:46.890Z,51.40
2018-06-08T19:50:16.351Z,50.70
2018-06-08T19:52:45.115Z,50.90
2018-06-08T19:55:13.946Z,51.40
2018-06-08T19:57:42.764Z,51.90
2018-06-08T20:00:11.619Z,52.30
2018-06-08T20:02:40.426Z,52.40
2018-06-08T20:05:09.229Z,52.40
2018-06-08T20:07:38.038Z,52.60
2018-06-08T20:10:06.851Z,54.20
2018-06-08T20:12:35.686Z,54.80
2018-06-08T20:15:04.657Z,55.20
2018-06-08T20:17:33.499Z,55.60
2018-06-08T20:20:02.299Z,56.10
2018-06-08T20:22:31.130Z,56.60
2018-06-08T20:24:59.992Z,56.90
2018-06-08T20:27:28.795Z,56.90
2018-06-08T20:29:57.590Z,57.00
2018-06-08T20:32:26.414Z,57.30
2018-06-08T20:34:55.264Z,57.70
2018-06-08T20:37:24.085Z,58.00
2018-06-08T20:39:53.290Z,58.30
2018-06-08T20:42:22.106Z,58.70
2018-06-08T20:44:50.911Z,58.80
2018-06-08T20:47:19.714Z,59.10
2018-06-08T20:49:48.602Z,59.30
2018-06-08T20:52:17.410Z,59.60
2018-06-08T20:54:46.266Z,59.90
2018-06-08T20:57:26.571Z,60.30
2018-06-08T20:59:55.371Z,60.20
2018-06-08T21:02:24.351Z,61.00
2018-06-08T21:04:53.010Z,60.50
2018-06-08T21:07:21.818Z,61.00
2018-06-08T21:09:50.843Z,61.50
2018-06-08T21:12:20.355Z,61.40
2018-06-08T21:14:49.171Z,61.90
2018-06-08T21:17:17.982Z,62.10
2018-06-08T21:19:46.855Z,62.50
2018-06-08T21:22:15.746Z,62.90
2018-06-08T21:24:44.550Z,62.90
2018-06-08T21:27:13.361Z,63.20
2018-06-08T21:29:42.150Z,63.30
2018-06-08T21:32:10.987Z,63.70
2018-06-08T21:34:39.783Z,64.00
2018-06-08T21:37:08.626Z,64.70
2018-06-08T21:39:37.430Z,65.10
2018-06-08T21:42:06.230Z,65.50
2018-06-08T21:44:35.038Z,65.50
2018-06-08T21:47:03.858Z,65.90
2018-06-08T21:49:32.658Z,66.20
2018-06-08T21:52:01.486Z,66.40
2018-06-08T21:54:30.294Z,66.90
2018-06-08T21:56:59.095Z,67.10
2018-06-08T21:59:27.903Z,67.30
2018-06-08T22:01:56.707Z,67.80
2018-06-08T22:04:25.514Z,68.20
2018-06-08T22:06:54.326Z,68.50
2018-06-08T22:09:23.147Z,69.10
2018-06-08T22:11:51.947Z,69.60
2018-06-08T22:16:49.343Z,70.00
2018-06-08T22:19:18.154Z,70.10
2018-06-08T22:21:46.971Z,70.10
2018-06-08T22:26:44.302Z,70.20
2018-06-08T22:29:13.118Z,70.10
2018-06-08T22:31:41.930Z,70.00
2018-06-08T22:34:10.802Z,70.00
2018-06-08T22:36:39.675Z,70.10
2018-06-08T22:39:08.491Z,70.10
2018-06-08T22:41:37.306Z,70.30
2018-06-08T22:44:06.118Z,70.90
2018-06-08T22:46:34.918Z,71.20
2018-06-08T22:49:03.739Z,71.70
2018-06-08T22:51:32.559Z,72.10
2018-06-08T22:54:01.379Z,72.50
2018-06-08T22:56:30.178Z,72.90
2018-06-08T22:58:58.999Z,72.80
2018-06-08T23:01:27.814Z,73.30
2018-06-08T23:03:56.623Z,73.70
2018-06-08T23:06:25.446Z,73.30
2018-06-08T23:08:54.257Z,74.10
2018-06-08T23:11:23.100Z,74.40
2018-06-08T23:13:51.920Z,73.80
2018-06-08T23:16:20.751Z,73.90
2018-06-08T23:18:49.551Z,74.50
2018-06-08T23:21:18.365Z,75.20
2018-06-08T23:23:47.172Z,75.50
2018-06-08T23:26:15.998Z,75.70
2018-06-08T23:28:44.807Z,75.90
2018-06-08T23:31:13.619Z,75.80
2018-06-08T23:33:42.418Z,76.00
2018-06-08T23:36:11.247Z,75.80
2018-06-08T23:38:40.051Z,75.20
2018-06-08T23:41:08.863Z,74.80
2018-06-08T23:43:37.767Z,74.50
2018-06-08T23:46:06.638Z,74.50
2018-06-08T23:48:35.467Z,74.00
2018-06-08T23:51:04.275Z,74.20
2018-06-08T23:53:33.088Z,74.20
2018-06-08T23:56:01.907Z,73.80
2018-06-08T23:58:30.731Z,73.70
